メインページ
METAR-TAF:

METAR-TAF

空港 :

Schenectady County Airport

スケネクタディ, ニューヨーク, アメリカ合衆国

緯度: 42-51N, 経度: 073-56W, 海抜: 115m

現時点の気象観測

当レポートは53分前の17:53(UTC)に作成
南西の風 6kt
気温 32°C
湿度 59%
気圧 1010 hPa
視程: 16.1km
高度4400ftの雲は散在している
高度5000ftの千切れ雲あり

METAR: KSCH 191753Z 23006KT 10SM SCT044 BKN050 32/23 A2982

時間: 14:46 (18:46 UTC)


TAF: 見つかりません

4,000以上の空港の気象観測と天気予報(METAR報とTAF報)

利用可能な観測所は地図上に黄色い丸と赤い丸で示す。

丸の上にカーソルを重ねると観測所名を参照できる。

次にクリックすると気象観測と天気予報を参照できる。

マップの切り替え:黒色「×」印の緑ボタンをクリックして拡大、「-」印の緑ボタンをクリックして縮小、緑色の三角印をクリックして隣りの地図に切り替え


METAR-TAF: